TimeCST,TemperatureF,Dew PointF,Humidity,Sea Level PressureIn,VisibilityMPH,Wind Direction,Wind SpeedMPH,Gust SpeedMPH,PrecipitationIn,Events,Conditions,WindDirDegrees,DateUTC
12:10 AM,10.4,6.8,85,29.98,10.0,West,8.1,-,N/A,,Clear,260,2013-02-22 06:10:00
12:30 AM,8.6,5.0,85,30.00,10.0,West,6.9,-,N/A,,Clear,260,2013-02-22 06:30:00
12:50 AM,8.6,5.0,85,30.01,10.0,WSW,11.5,-,N/A,,Clear,250,2013-02-22 06:50:00
1:10 AM,10.4,6.8,85,30.02,10.0,West,12.7,-,N/A,,Clear,260,2013-02-22 07:10:00
1:30 AM,10.4,6.8,85,30.00,10.0,WNW,17.3,-,N/A,,Clear,290,2013-02-22 07:30:00
1:50 AM,10.4,5.0,79,30.01,10.0,WNW,12.7,-,N/A,,Clear,300,2013-02-22 07:50:00
2:10 AM,8.6,5.0,85,30.00,10.0,WNW,13.8,-,N/A,,Clear,300,2013-02-22 08:10:00
2:30 AM,8.6,5.0,85,30.00,10.0,WNW,10.4,-,N/A,,Clear,290,2013-02-22 08:30:00
2:50 AM,8.6,5.0,85,30.00,10.0,WNW,12.7,-,N/A,,Clear,300,2013-02-22 08:50:00
3:10 AM,8.6,5.0,85,30.01,10.0,WNW,11.5,-,N/A,,Clear,300,2013-02-22 09:10:00
3:30 AM,6.8,1.4,79,30.01,10.0,WNW,8.1,-,N/A,,Clear,290,2013-02-22 09:30:00
3:50 AM,6.8,3.2,85,30.01,10.0,West,5.8,-,N/A,,Clear,270,2013-02-22 09:50:00
4:10 AM,5.0,1.4,85,30.02,10.0,West,6.9,-,N/A,,Clear,280,2013-02-22 10:10:00
4:30 AM,5.0,1.4,85,30.03,10.0,West,6.9,-,N/A,,Clear,260,2013-02-22 10:30:00
4:50 AM,5.0,-0.4,78,30.03,10.0,West,8.1,-,N/A,,Clear,270,2013-02-22 10:50:00
5:10 AM,3.2,-0.4,85,30.03,10.0,WNW,9.2,-,N/A,,Clear,300,2013-02-22 11:10:00
5:30 AM,1.4,-0.4,92,30.04,10.0,West,4.6,-,N/A,,Clear,280,2013-02-22 11:30:00
5:50 AM,1.4,-0.4,92,30.05,10.0,West,8.1,-,N/A,,Clear,260,2013-02-22 11:50:00
6:10 AM,1.4,-0.4,92,30.05,10.0,West,8.1,-,N/A,,Clear,260,2013-02-22 12:10:00
6:30 AM,1.4,-0.4,92,30.05,10.0,West,6.9,-,N/A,,Clear,280,2013-02-22 12:30:00
6:50 AM,1.4,-2.2,85,30.05,10.0,West,10.4,-,N/A,,Clear,270,2013-02-22 12:50:00
7:10 AM,1.4,-2.2,85,30.06,10.0,West,11.5,-,N/A,,Clear,280,2013-02-22 13:10:00
7:30 AM,1.4,-2.2,85,30.06,10.0,West,8.1,-,N/A,,Clear,280,2013-02-22 13:30:00
7:50 AM,3.2,-0.4,85,30.07,10.0,WNW,9.2,-,N/A,,Clear,290,2013-02-22 13:50:00
8:10 AM,3.2,-0.4,85,30.09,10.0,WNW,4.6,-,N/A,,Clear,290,2013-02-22 14:10:00
8:30 AM,5.0,-0.4,78,30.11,10.0,WSW,4.6,-,N/A,,Clear,240,2013-02-22 14:30:00
8:50 AM,5.0,-0.4,78,30.12,10.0,WSW,9.2,-,N/A,,Clear,240,2013-02-22 14:50:00
9:10 AM,6.8,1.4,79,30.13,10.0,WSW,8.1,-,N/A,,Clear,250,2013-02-22 15:10:00
9:30 AM,8.6,5.0,85,30.12,10.0,West,8.1,-,N/A,,Clear,270,2013-02-22 15:30:00
9:50 AM,10.4,6.8,85,30.13,10.0,West,9.2,-,N/A,,Clear,270,2013-02-22 15:50:00
10:10 AM,14.0,6.8,73,30.14,10.0,West,8.1,-,N/A,,Clear,260,2013-02-22 16:10:00
10:30 AM,14.0,8.6,79,30.14,10.0,West,8.1,-,N/A,,Clear,270,2013-02-22 16:30:00
10:50 AM,14.0,8.6,79,30.13,10.0,West,9.2,-,N/A,,Clear,280,2013-02-22 16:50:00
11:10 AM,15.8,10.4,79,30.14,10.0,West,10.4,-,N/A,,Clear,270,2013-02-22 17:10:00
11:30 AM,17.6,10.4,73,30.15,10.0,West,9.2,-,N/A,,Clear,260,2013-02-22 17:30:00
11:50 AM,17.6,10.4,73,30.15,10.0,West,10.4,-,N/A,,Clear,260,2013-02-22 17:50:00
12:10 PM,17.6,12.2,79,30.15,10.0,West,10.4,-,N/A,,Clear,270,2013-02-22 18:10:00
12:30 PM,19.4,14.0,80,30.14,10.0,West,8.1,-,N/A,,Clear,280,2013-02-22 18:30:00
12:50 PM,19.4,14.0,80,30.13,10.0,NW,10.4,-,N/A,,Clear,310,2013-02-22 18:50:00
1:10 PM,21.2,15.8,80,30.13,10.0,West,5.8,-,N/A,,Clear,280,2013-02-22 19:10:00
1:30 PM,23.0,15.8,74,30.12,9.0,WNW,5.8,-,N/A,,Clear,300,2013-02-22 19:30:00
1:50 PM,23.0,15.8,74,30.12,10.0,NW,8.1,-,N/A,,Clear,310,2013-02-22 19:50:00
2:10 PM,23.0,15.8,74,30.11,10.0,NW,9.2,-,N/A,,Clear,320,2013-02-22 20:10:00
2:30 PM,23.0,15.8,74,30.11,10.0,NW,9.2,-,N/A,,Clear,310,2013-02-22 20:30:00
2:50 PM,24.8,15.8,69,30.10,10.0,NW,10.4,-,N/A,,Clear,320,2013-02-22 20:50:00
3:10 PM,24.8,15.8,69,30.09,10.0,NW,9.2,-,N/A,,Clear,320,2013-02-22 21:10:00
3:30 PM,24.8,15.8,69,30.10,10.0,NW,5.8,-,N/A,,Clear,320,2013-02-22 21:30:00
3:50 PM,24.8,15.8,69,30.10,10.0,NW,5.8,-,N/A,,Clear,310,2013-02-22 21:50:00
4:10 PM,24.8,17.6,74,30.10,10.0,West,3.5,-,N/A,,Clear,260,2013-02-22 22:10:00
4:30 PM,23.0,17.6,80,30.10,10.0,WSW,4.6,-,N/A,,Clear,250,2013-02-22 22:30:00
4:50 PM,23.0,17.6,80,30.09,10.0,West,4.6,-,N/A,,Clear,270,2013-02-22 22:50:00
5:10 PM,21.2,15.8,80,30.09,10.0,West,4.6,-,N/A,,Clear,260,2013-02-22 23:10:00
5:30 PM,21.2,15.8,80,30.08,10.0,West,3.5,-,N/A,,Clear,280,2013-02-22 23:30:00
5:50 PM,19.4,15.8,86,30.09,10.0,WSW,3.5,-,N/A,,Clear,250,2013-02-22 23:50:00
6:10 PM,23.0,15.8,74,30.09,10.0,West,4.6,-,N/A,,Clear,260,2013-02-23 00:10:00
6:30 PM,21.2,15.8,80,30.09,10.0,Calm,Calm,-,N/A,,Mostly Cloudy,0,2013-02-23 00:30:00
6:50 PM,19.4,15.8,86,30.10,10.0,WNW,4.6,-,N/A,,Overcast,290,2013-02-23 00:50:00
7:10 PM,17.6,15.8,93,30.10,10.0,WNW,3.5,-,N/A,,Mostly Cloudy,290,2013-02-23 01:10:00
7:30 PM,15.8,14.0,93,30.10,10.0,WNW,4.6,-,N/A,,Partly Cloudy,290,2013-02-23 01:30:00
7:50 PM,17.6,14.0,86,30.11,10.0,WNW,4.6,-,N/A,,Clear,290,2013-02-23 01:50:00
8:10 PM,15.8,14.0,93,30.11,10.0,WNW,6.9,-,N/A,,Clear,290,2013-02-23 02:10:00
8:30 PM,14.0,12.2,93,30.11,9.0,WNW,6.9,-,N/A,,Clear,300,2013-02-23 02:30:00
8:50 PM,14.0,12.2,93,30.11,10.0,WNW,5.8,-,N/A,,Clear,290,2013-02-23 02:50:00
9:10 PM,14.0,12.2,93,30.11,10.0,West,3.5,-,N/A,,Clear,280,2013-02-23 03:10:00
9:30 PM,12.2,10.4,92,30.11,10.0,West,4.6,-,N/A,,Clear,260,2013-02-23 03:30:00
9:50 PM,10.4,8.6,92,30.12,10.0,WSW,5.8,-,N/A,,Clear,250,2013-02-23 03:50:00
10:10 PM,8.6,6.8,92,30.12,7.0,WSW,8.1,-,N/A,,Clear,240,2013-02-23 04:10:00
10:30 PM,8.6,6.8,92,30.12,7.0,WSW,5.8,-,N/A,,Clear,240,2013-02-23 04:30:00
10:50 PM,8.6,6.8,92,30.12,5.0,WSW,4.6,-,N/A,,Clear,250,2013-02-23 04:50:00
11:10 PM,10.4,10.4,100,30.11,7.0,WSW,6.9,-,N/A,,Scattered Clouds,250,2013-02-23 05:10:00
11:30 PM,8.6,6.8,92,30.11,5.0,WSW,4.6,-,N/A,,Mostly Cloudy,240,2013-02-23 05:30:00
11:50 PM,6.8,5.0,92,30.11,4.0,WSW,5.8,-,N/A,,Mostly Cloudy,240,2013-02-23 05:50:00